sensor_id;sensor_type;location;lat;lon;timestamp;pressure;altitude;pressure_sealevel;temperature;humidity
18527;BME280;9393;42.158;24.748;2023-04-29T00:00:42;99744.47;;;12.99;56.45
18527;BME280;9393;42.158;24.748;2023-04-29T00:03:46;99749.03;;;12.62;57.06
18527;BME280;9393;42.158;24.748;2023-04-29T00:06:52;99749.28;;;12.51;57.37
18527;BME280;9393;42.158;24.748;2023-04-29T00:09:55;99749.16;;;12.25;58.40
18527;BME280;9393;42.158;24.748;2023-04-29T00:12:59;99756.56;;;12.12;59.18
18527;BME280;9393;42.158;24.748;2023-04-29T00:16:03;99747.16;;;12.19;58.96
18527;BME280;9393;42.158;24.748;2023-04-29T00:19:07;99744.72;;;12.53;57.53
18527;BME280;9393;42.158;24.748;2023-04-29T00:22:12;99745.75;;;12.60;57.02
18527;BME280;9393;42.158;24.748;2023-04-29T00:25:16;99747.41;;;12.43;57.08
18527;BME280;9393;42.158;24.748;2023-04-29T00:28:19;99742.31;;;12.59;56.72
18527;BME280;9393;42.158;24.748;2023-04-29T00:31:23;99740.31;;;12.36;57.09
18527;BME280;9393;42.158;24.748;2023-04-29T00:34:27;99743.59;;;12.10;57.87
18527;BME280;9393;42.158;24.748;2023-04-29T00:37:32;99747.25;;;12.27;57.24
18527;BME280;9393;42.158;24.748;2023-04-29T00:40:36;99746.50;;;12.35;57.12
18527;BME280;9393;42.158;24.748;2023-04-29T00:43:40;99758.91;;;12.33;57.27
18527;BME280;9393;42.158;24.748;2023-04-29T00:46:44;99747.22;;;12.09;58.27
18527;BME280;9393;42.158;24.748;2023-04-29T00:49:48;99759.59;;;12.52;57.16
18527;BME280;9393;42.158;24.748;2023-04-29T00:52:54;99750.78;;;12.53;56.91
18527;BME280;9393;42.158;24.748;2023-04-29T00:55:58;99750.69;;;12.45;57.25
18527;BME280;9393;42.158;24.748;2023-04-29T00:59:03;99746.72;;;12.24;57.30
18527;BME280;9393;42.158;24.748;2023-04-29T01:02:07;99744.78;;;12.43;56.50
18527;BME280;9393;42.158;24.748;2023-04-29T01:05:12;99745.91;;;12.41;56.57
18527;BME280;9393;42.158;24.748;2023-04-29T01:08:25;99737.00;;;12.16;57.39
18527;BME280;9393;42.158;24.748;2023-04-29T01:11:34;99746.66;;;12.51;56.92
18527;BME280;9393;42.158;24.748;2023-04-29T01:14:47;99747.84;;;12.56;56.95
18527;BME280;9393;42.158;24.748;2023-04-29T01:17:59;99747.16;;;12.19;58.46
18527;BME280;9393;42.158;24.748;2023-04-29T01:21:04;99746.19;;;12.38;58.25
18527;BME280;9393;42.158;24.748;2023-04-29T01:24:09;99737.31;;;12.84;56.99
18527;BME280;9393;42.158;24.748;2023-04-29T01:27:20;99744.47;;;12.99;57.09
18527;BME280;9393;42.158;24.748;2023-04-29T01:30:34;99741.41;;;12.86;57.42
18527;BME280;9393;42.158;24.748;2023-04-29T01:33:47;99743.22;;;12.86;57.25
18527;BME280;9393;42.158;24.748;2023-04-29T01:37:02;99737.00;;;12.69;57.60
18527;BME280;9393;42.158;24.748;2023-04-29T01:40:21;99731.56;;;12.62;57.78
18527;BME280;9393;42.158;24.748;2023-04-29T01:43:37;99730.19;;;12.58;57.78
18527;BME280;9393;42.158;24.748;2023-04-29T01:46:53;99727.59;;;12.58;57.92
18527;BME280;9393;42.158;24.748;2023-04-29T01:50:04;99722.13;;;12.52;58.14
18527;BME280;9393;42.158;24.748;2023-04-29T01:53:09;99722.75;;;12.46;58.27
18527;BME280;9393;42.158;24.748;2023-04-29T01:56:14;99724.91;;;12.50;58.12
18527;BME280;9393;42.158;24.748;2023-04-29T01:59:33;99718.19;;;12.30;58.50
18527;BME280;9393;42.158;24.748;2023-04-29T02:02:57;99722.63;;;12.02;59.38
18527;BME280;9393;42.158;24.748;2023-04-29T02:06:11;99722.28;;;12.33;58.40
18527;BME280;9393;42.158;24.748;2023-04-29T02:09:14;99725.22;;;12.30;58.50
18527;BME280;9393;42.158;24.748;2023-04-29T02:12:26;99723.00;;;12.07;59.15
18527;BME280;9393;42.158;24.748;2023-04-29T02:15:29;99727.38;;;12.17;58.75
18527;BME280;9393;42.158;24.748;2023-04-29T02:18:33;99727.72;;;12.22;58.44
18527;BME280;9393;42.158;24.748;2023-04-29T02:21:38;99729.78;;;12.00;59.04
18527;BME280;9393;42.158;24.748;2023-04-29T02:24:42;99728.34;;;11.88;59.40
18527;BME280;9393;42.158;24.748;2023-04-29T02:27:47;99728.38;;;11.69;59.99
18527;BME280;9393;42.158;24.748;2023-04-29T02:30:51;99717.94;;;11.69;60.01
18527;BME280;9393;42.158;24.748;2023-04-29T02:33:55;99714.63;;;11.40;60.78
18527;BME280;9393;42.158;24.748;2023-04-29T02:36:59;99714.53;;;11.59;60.31
18527;BME280;9393;42.158;24.748;2023-04-29T02:40:03;99711.38;;;11.65;59.97
18527;BME280;9393;42.158;24.748;2023-04-29T02:43:09;99712.31;;;11.74;59.63
18527;BME280;9393;42.158;24.748;2023-04-29T02:46:13;99712.88;;;11.68;59.69
18527;BME280;9393;42.158;24.748;2023-04-29T02:49:17;99713.47;;;11.52;60.01
18527;BME280;9393;42.158;24.748;2023-04-29T02:52:22;99721.94;;;11.73;59.48
18527;BME280;9393;42.158;24.748;2023-04-29T02:55:25;99721.50;;;11.78;59.11
18527;BME280;9393;42.158;24.748;2023-04-29T02:58:35;99728.28;;;11.61;59.83
18527;BME280;9393;42.158;24.748;2023-04-29T03:01:39;99729.38;;;11.68;59.68
18527;BME280;9393;42.158;24.748;2023-04-29T03:04:42;99722.63;;;11.75;59.34
18527;BME280;9393;42.158;24.748;2023-04-29T03:07:46;99722.75;;;11.37;60.21
18527;BME280;9393;42.158;24.748;2023-04-29T03:10:50;99731.75;;;11.52;59.66
18527;BME280;9393;42.158;24.748;2023-04-29T03:13:55;99733.28;;;11.54;59.42
18527;BME280;9393;42.158;24.748;2023-04-29T03:16:59;99733.22;;;11.64;59.23
18527;BME280;9393;42.158;24.748;2023-04-29T03:20:03;99734.19;;;11.73;58.68
18527;BME280;9393;42.158;24.748;2023-04-29T03:23:07;99743.09;;;11.80;58.67
18527;BME280;9393;42.158;24.748;2023-04-29T03:26:12;99734.94;;;11.83;58.65
18527;BME280;9393;42.158;24.748;2023-04-29T03:29:17;99740.97;;;11.93;58.20
18527;BME280;9393;42.158;24.748;2023-04-29T03:32:21;99740.94;;;11.75;58.67
18527;BME280;9393;42.158;24.748;2023-04-29T03:35:25;99741.59;;;11.77;58.56
18527;BME280;9393;42.158;24.748;2023-04-29T03:38:47;99741.47;;;11.79;58.44
18527;BME280;9393;42.158;24.748;2023-04-29T03:41:51;99746.72;;;11.96;58.06
18527;BME280;9393;42.158;24.748;2023-04-29T03:44:57;99751.09;;;12.05;58.03
18527;BME280;9393;42.158;24.748;2023-04-29T03:48:01;99757.03;;;12.25;57.07
18527;BME280;9393;42.158;24.748;2023-04-29T03:51:05;99765.44;;;12.64;56.01
18527;BME280;9393;42.158;24.748;2023-04-29T03:54:10;99761.69;;;12.84;55.32
18527;BME280;9393;42.158;24.748;2023-04-29T03:57:14;99770.03;;;13.05;54.74
18527;BME280;9393;42.158;24.748;2023-04-29T04:00:19;99767.88;;;13.19;54.33
18527;BME280;9393;42.158;24.748;2023-04-29T04:03:29;99776.03;;;13.15;54.15
18527;BME280;9393;42.158;24.748;2023-04-29T04:06:34;99770.69;;;13.07;54.58
18527;BME280;9393;42.158;24.748;2023-04-29T04:09:37;99772.44;;;12.99;54.82
18527;BME280;9393;42.158;24.748;2023-04-29T04:12:41;99771.53;;;13.08;54.57
18527;BME280;9393;42.158;24.748;2023-04-29T04:15:50;99773.72;;;12.59;55.50
18527;BME280;9393;42.158;24.748;2023-04-29T04:18:54;99776.84;;;12.63;55.65
18527;BME280;9393;42.158;24.748;2023-04-29T04:21:57;99775.81;;;12.56;56.18
18527;BME280;9393;42.158;24.748;2023-04-29T04:25:02;99783.06;;;12.62;56.25
18527;BME280;9393;42.158;24.748;2023-04-29T04:28:06;99776.78;;;12.55;56.19
18527;BME280;9393;42.158;24.748;2023-04-29T04:31:40;99781.50;;;12.69;55.88
18527;BME280;9393;42.158;24.748;2023-04-29T04:34:49;99778.78;;;12.96;55.26
18527;BME280;9393;42.158;24.748;2023-04-29T04:37:54;99777.94;;;13.31;54.39
18527;BME280;9393;42.158;24.748;2023-04-29T04:40:57;99771.91;;;13.31;54.15
18527;BME280;9393;42.158;24.748;2023-04-29T04:44:10;99773.53;;;13.32;54.12
18527;BME280;9393;42.158;24.748;2023-04-29T04:47:24;99771.78;;;12.79;55.33
18527;BME280;9393;42.158;24.748;2023-04-29T04:50:36;99787.63;;;12.95;54.98
18527;BME280;9393;42.158;24.748;2023-04-29T04:53:40;99786.72;;;13.04;54.49
18527;BME280;9393;42.158;24.748;2023-04-29T04:56:52;99792.47;;;12.73;55.75
18527;BME280;9393;42.158;24.748;2023-04-29T04:59:56;99796.69;;;13.19;54.11
18527;BME280;9393;42.158;24.748;2023-04-29T05:03:01;99796.31;;;13.13;54.40
18527;BME280;9393;42.158;24.748;2023-04-29T05:06:05;99796.03;;;13.17;54.31
18527;BME280;9393;42.158;24.748;2023-04-29T05:09:09;99798.44;;;13.36;53.52
18527;BME280;9393;42.158;24.748;2023-04-29T05:12:13;99801.41;;;13.15;54.36
18527;BME280;9393;42.158;24.748;2023-04-29T05:15:17;99804.91;;;13.06;54.79
18527;BME280;9393;42.158;24.748;2023-04-29T05:18:26;99794.97;;;13.27;54.33
18527;BME280;9393;42.158;24.748;2023-04-29T05:21:30;99791.25;;;13.12;54.73
18527;BME280;9393;42.158;24.748;2023-04-29T05:24:36;99785.59;;;13.25;54.74
18527;BME280;9393;42.158;24.748;2023-04-29T05:27:40;99787.78;;;12.94;55.96
18527;BME280;9393;42.158;24.748;2023-04-29T05:30:50;99785.97;;;12.94;55.64
18527;BME280;9393;42.158;24.748;2023-04-29T05:33:55;99782.53;;;12.76;56.02
18527;BME280;9393;42.158;24.748;2023-04-29T05:36:59;99782.50;;;12.86;56.25
18527;BME280;9393;42.158;24.748;2023-04-29T05:40:06;99765.41;;;13.17;55.08
18527;BME280;9393;42.158;24.748;2023-04-29T05:43:10;99773.84;;;12.93;55.99
18527;BME280;9393;42.158;24.748;2023-04-29T05:46:14;99767.72;;;13.02;55.69
18527;BME280;9393;42.158;24.748;2023-04-29T05:49:20;99767.09;;;13.78;53.58
18527;BME280;9393;42.158;24.748;2023-04-29T05:52:24;99757.53;;;14.52;51.02
18527;BME280;9393;42.158;24.748;2023-04-29T05:55:28;99759.72;;;14.81;50.04
18527;BME280;9393;42.158;24.748;2023-04-29T05:58:32;99758.22;;;15.51;48.19
18527;BME280;9393;42.158;24.748;2023-04-29T06:01:36;99757.41;;;15.98;47.55
18527;BME280;9393;42.158;24.748;2023-04-29T06:04:42;99752.97;;;15.98;46.51
18527;BME280;9393;42.158;24.748;2023-04-29T06:07:59;99747.00;;;16.04;47.12
18527;BME280;9393;42.158;24.748;2023-04-29T06:11:17;99747.13;;;16.42;45.82
18527;BME280;9393;42.158;24.748;2023-04-29T06:14:21;99745.44;;;16.49;46.03
18527;BME280;9393;42.158;24.748;2023-04-29T06:17:26;99742.66;;;16.50;45.91
18527;BME280;9393;42.158;24.748;2023-04-29T06:20:32;99734.06;;;16.56;45.94
18527;BME280;9393;42.158;24.748;2023-04-29T06:23:38;99736.56;;;16.73;46.07
18527;BME280;9393;42.158;24.748;2023-04-29T06:26:49;99739.16;;;16.81;45.88
18527;BME280;9393;42.158;24.748;2023-04-29T06:29:53;99730.75;;;16.85;46.27
18527;BME280;9393;42.158;24.748;2023-04-29T06:32:57;99732.69;;;17.06;46.18
18527;BME280;9393;42.158;24.748;2023-04-29T06:36:03;99735.25;;;17.14;46.00
18527;BME280;9393;42.158;24.748;2023-04-29T06:39:26;99739.06;;;17.63;45.38
18527;BME280;9393;42.158;24.748;2023-04-29T06:43:01;99733.16;;;17.61;45.26
18527;BME280;9393;42.158;24.748;2023-04-29T06:46:44;99731.44;;;17.69;43.69
18527;BME280;9393;42.158;24.748;2023-04-29T06:49:55;99728.19;;;18.02;42.45
18527;BME280;9393;42.158;24.748;2023-04-29T06:53:00;99732.59;;;17.95;43.08
18527;BME280;9393;42.158;24.748;2023-04-29T06:56:05;99730.50;;;17.91;42.25
18527;BME280;9393;42.158;24.748;2023-04-29T06:59:09;99709.94;;;18.58;41.72
18527;BME280;9393;42.158;24.748;2023-04-29T07:02:13;99709.59;;;18.46;41.56
18527;BME280;9393;42.158;24.748;2023-04-29T07:05:17;99706.50;;;18.07;41.63
18527;BME280;9393;42.158;24.748;2023-04-29T07:08:23;99702.16;;;18.35;41.50
18527;BME280;9393;42.158;24.748;2023-04-29T07:11:27;99699.38;;;17.86;41.91
18527;BME280;9393;42.158;24.748;2023-04-29T07:14:31;99704.09;;;18.05;41.82
18527;BME280;9393;42.158;24.748;2023-04-29T07:17:34;99706.09;;;18.25;41.39
18527;BME280;9393;42.158;24.748;2023-04-29T07:20:38;99702.25;;;18.63;41.17
18527;BME280;9393;42.158;24.748;2023-04-29T07:23:44;99704.91;;;18.63;41.04
18527;BME280;9393;42.158;24.748;2023-04-29T07:26:48;99701.94;;;18.73;40.22
18527;BME280;9393;42.158;24.748;2023-04-29T07:29:52;99712.53;;;19.00;40.02
18527;BME280;9393;42.158;24.748;2023-04-29T07:32:56;99700.94;;;18.74;40.18
18527;BME280;9393;42.158;24.748;2023-04-29T07:36:00;99696.03;;;18.92;40.32
18527;BME280;9393;42.158;24.748;2023-04-29T07:39:06;99696.84;;;18.71;40.43
18527;BME280;9393;42.158;24.748;2023-04-29T07:42:11;99698.59;;;18.85;40.43
18527;BME280;9393;42.158;24.748;2023-04-29T07:45:15;99698.66;;;19.47;39.81
18527;BME280;9393;42.158;24.748;2023-04-29T07:48:19;99696.94;;;19.67;39.24
18527;BME280;9393;42.158;24.748;2023-04-29T07:51:23;99692.03;;;20.12;38.33
18527;BME280;9393;42.158;24.748;2023-04-29T07:54:31;99691.50;;;19.41;39.35
18527;BME280;9393;42.158;24.748;2023-04-29T07:57:35;99685.88;;;19.51;39.08
18527;BME280;9393;42.158;24.748;2023-04-29T08:00:39;99679.88;;;19.77;39.34
18527;BME280;9393;42.158;24.748;2023-04-29T08:03:43;99680.84;;;20.16;37.74
18527;BME280;9393;42.158;24.748;2023-04-29T08:06:50;99688.28;;;20.60;37.08
18527;BME280;9393;42.158;24.748;2023-04-29T08:09:55;99677.25;;;20.96;36.87
18527;BME280;9393;42.158;24.748;2023-04-29T08:12:59;99679.03;;;20.24;38.31
18527;BME280;9393;42.158;24.748;2023-04-29T08:16:03;99668.50;;;20.50;38.03
18527;BME280;9393;42.158;24.748;2023-04-29T08:19:07;99669.53;;;20.88;36.89
18527;BME280;9393;42.158;24.748;2023-04-29T08:22:10;99664.78;;;21.36;36.76
18527;BME280;9393;42.158;24.748;2023-04-29T08:25:17;99661.97;;;21.05;36.31
18527;BME280;9393;42.158;24.748;2023-04-29T08:28:21;99659.50;;;21.10;36.09
18527;BME280;9393;42.158;24.748;2023-04-29T08:31:25;99656.22;;;21.28;35.64
18527;BME280;9393;42.158;24.748;2023-04-29T08:34:30;99651.72;;;21.35;35.66
18527;BME280;9393;42.158;24.748;2023-04-29T08:37:35;99649.22;;;21.53;35.21
18527;BME280;9393;42.158;24.748;2023-04-29T08:40:42;99650.81;;;21.67;35.42
18527;BME280;9393;42.158;24.748;2023-04-29T08:43:47;99652.38;;;21.81;35.06
18527;BME280;9393;42.158;24.748;2023-04-29T08:46:51;99644.97;;;22.28;34.34
18527;BME280;9393;42.158;24.748;2023-04-29T08:49:55;99641.78;;;22.50;34.22
18527;BME280;9393;42.158;24.748;2023-04-29T08:52:59;99635.34;;;22.33;33.72
18527;BME280;9393;42.158;24.748;2023-04-29T08:56:08;99631.25;;;22.37;33.72
18527;BME280;9393;42.158;24.748;2023-04-29T08:59:16;99623.69;;;22.59;33.06
18527;BME280;9393;42.158;24.748;2023-04-29T09:02:21;99629.88;;;22.53;33.25
18527;BME280;9393;42.158;24.748;2023-04-29T09:05:26;99626.25;;;21.78;34.32
18527;BME280;9393;42.158;24.748;2023-04-29T09:08:31;99625.41;;;21.33;34.71
18527;BME280;9393;42.158;24.748;2023-04-29T09:11:37;99617.22;;;19.90;36.27
18527;BME280;9393;42.158;24.748;2023-04-29T09:14:41;99615.09;;;20.53;35.98
18527;BME280;9393;42.158;24.748;2023-04-29T09:17:46;99621.00;;;20.88;35.50
18527;BME280;9393;42.158;24.748;2023-04-29T09:20:50;99603.22;;;21.01;34.96
18527;BME280;9393;42.158;24.748;2023-04-29T09:23:55;99604.50;;;21.56;34.81
18527;BME280;9393;42.158;24.748;2023-04-29T09:27:01;99600.13;;;21.75;34.54
18527;BME280;9393;42.158;24.748;2023-04-29T09:30:06;99596.44;;;21.76;34.27
18527;BME280;9393;42.158;24.748;2023-04-29T09:33:10;99583.16;;;22.14;33.96
18527;BME280;9393;42.158;24.748;2023-04-29T09:36:34;99568.19;;;22.51;34.13
18527;BME280;9393;42.158;24.748;2023-04-29T09:39:39;99563.56;;;22.64;32.95
18527;BME280;9393;42.158;24.748;2023-04-29T09:42:44;99562.19;;;22.31;33.08
18527;BME280;9393;42.158;24.748;2023-04-29T09:45:49;99560.41;;;22.74;32.16
18527;BME280;9393;42.158;24.748;2023-04-29T09:48:53;99558.81;;;22.91;32.53
18527;BME280;9393;42.158;24.748;2023-04-29T09:51:59;99555.41;;;23.02;31.71
18527;BME280;9393;42.158;24.748;2023-04-29T09:55:04;99548.69;;;22.82;30.28
18527;BME280;9393;42.158;24.748;2023-04-29T09:58:26;99538.50;;;22.79;30.79
18527;BME280;9393;42.158;24.748;2023-04-29T10:01:31;99528.66;;;22.97;30.19
18527;BME280;9393;42.158;24.748;2023-04-29T10:04:37;99523.19;;;22.49;29.95
18527;BME280;9393;42.158;24.748;2023-04-29T10:07:45;99522.97;;;22.76;29.99
18527;BME280;9393;42.158;24.748;2023-04-29T10:10:50;99525.63;;;22.94;29.17
18527;BME280;9393;42.158;24.748;2023-04-29T10:14:00;99523.88;;;23.06;28.64
18527;BME280;9393;42.158;24.748;2023-04-29T10:17:10;99517.31;;;23.38;27.94
18527;BME280;9393;42.158;24.748;2023-04-29T10:20:21;99513.03;;;23.37;27.42
18527;BME280;9393;42.158;24.748;2023-04-29T10:23:25;99507.31;;;23.52;26.95
18527;BME280;9393;42.158;24.748;2023-04-29T10:26:29;99505.47;;;23.52;27.62
18527;BME280;9393;42.158;24.748;2023-04-29T10:29:36;99500.22;;;23.64;27.89
18527;BME280;9393;42.158;24.748;2023-04-29T10:32:41;99494.63;;;23.65;27.21
18527;BME280;9393;42.158;24.748;2023-04-29T10:35:50;99498.97;;;23.78;27.94
18527;BME280;9393;42.158;24.748;2023-04-29T10:38:58;99500.50;;;23.26;28.71
18527;BME280;9393;42.158;24.748;2023-04-29T10:42:04;99492.06;;;22.56;29.99
18527;BME280;9393;42.158;24.748;2023-04-29T10:45:24;99488.88;;;22.66;29.42
18527;BME280;9393;42.158;24.748;2023-04-29T10:48:31;99486.09;;;23.15;29.48
18527;BME280;9393;42.158;24.748;2023-04-29T10:51:39;99483.88;;;23.60;28.68
18527;BME280;9393;42.158;24.748;2023-04-29T10:55:01;99481.31;;;23.65;28.38
18527;BME280;9393;42.158;24.748;2023-04-29T10:58:05;99470.84;;;23.82;27.93
18527;BME280;9393;42.158;24.748;2023-04-29T11:01:45;99468.25;;;23.64;27.59
18527;BME280;9393;42.158;24.748;2023-04-29T11:05:08;99455.66;;;23.83;27.49
18527;BME280;9393;42.158;24.748;2023-04-29T11:08:14;99465.91;;;24.09;27.08
18527;BME280;9393;42.158;24.748;2023-04-29T11:11:25;99445.94;;;23.77;27.03
18527;BME280;9393;42.158;24.748;2023-04-29T11:14:31;99449.69;;;23.28;27.67
18527;BME280;9393;42.158;24.748;2023-04-29T11:17:37;99442.97;;;22.95;28.01
18527;BME280;9393;42.158;24.748;2023-04-29T11:21:12;99437.06;;;22.93;28.06
18527;BME280;9393;42.158;24.748;2023-04-29T11:24:16;99427.38;;;23.58;27.55
18527;BME280;9393;42.158;24.748;2023-04-29T11:27:21;99423.19;;;23.21;28.52
18527;BME280;9393;42.158;24.748;2023-04-29T11:30:27;99422.00;;;23.17;29.39
18527;BME280;9393;42.158;24.748;2023-04-29T11:33:34;99412.84;;;22.65;27.62
18527;BME280;9393;42.158;24.748;2023-04-29T11:36:37;99407.22;;;22.55;27.84
18527;BME280;9393;42.158;24.748;2023-04-29T11:39:41;99410.19;;;22.83;27.34
18527;BME280;9393;42.158;24.748;2023-04-29T11:42:46;99412.53;;;22.55;27.38
18527;BME280;9393;42.158;24.748;2023-04-29T11:45:51;99395.50;;;22.26;27.78
18527;BME280;9393;42.158;24.748;2023-04-29T11:48:57;99403.25;;;22.46;27.64
18527;BME280;9393;42.158;24.748;2023-04-29T11:52:01;99399.09;;;22.86;26.67
18527;BME280;9393;42.158;24.748;2023-04-29T11:55:07;99396.00;;;22.89;26.39
18527;BME280;9393;42.158;24.748;2023-04-29T11:58:13;99389.09;;;23.30;26.34
18527;BME280;9393;42.158;24.748;2023-04-29T12:01:19;99381.69;;;23.61;26.19
18527;BME280;9393;42.158;24.748;2023-04-29T12:04:24;99378.41;;;23.59;26.34
18527;BME280;9393;42.158;24.748;2023-04-29T12:07:28;99372.63;;;23.62;26.26
18527;BME280;9393;42.158;24.748;2023-04-29T12:10:34;99357.72;;;23.85;25.82
18527;BME280;9393;42.158;24.748;2023-04-29T12:13:38;99352.03;;;23.58;25.78
18527;BME280;9393;42.158;24.748;2023-04-29T12:16:42;99345.78;;;23.64;25.63
18527;BME280;9393;42.158;24.748;2023-04-29T12:19:49;99350.88;;;23.77;25.43
18527;BME280;9393;42.158;24.748;2023-04-29T12:22:54;99346.81;;;23.63;25.55
18527;BME280;9393;42.158;24.748;2023-04-29T12:26:00;99339.66;;;23.63;26.12
18527;BME280;9393;42.158;24.748;2023-04-29T12:29:03;99347.16;;;23.55;26.50
18527;BME280;9393;42.158;24.748;2023-04-29T12:32:11;99337.91;;;24.04;25.49
18527;BME280;9393;42.158;24.748;2023-04-29T12:35:20;99330.63;;;23.76;25.03
18527;BME280;9393;42.158;24.748;2023-04-29T12:38:25;99329.34;;;23.44;25.39
18527;BME280;9393;42.158;24.748;2023-04-29T12:41:36;99327.56;;;23.38;26.12
18527;BME280;9393;42.158;24.748;2023-04-29T12:44:40;99331.28;;;23.37;25.48
18527;BME280;9393;42.158;24.748;2023-04-29T12:47:44;99322.31;;;23.61;25.41
18527;BME280;9393;42.158;24.748;2023-04-29T12:50:49;99319.84;;;24.06;25.26
18527;BME280;9393;42.158;24.748;2023-04-29T12:53:53;99311.00;;;23.24;26.69
18527;BME280;9393;42.158;24.748;2023-04-29T12:56:57;99316.88;;;23.14;26.53
18527;BME280;9393;42.158;24.748;2023-04-29T13:00:01;99301.44;;;22.63;27.16
18527;BME280;9393;42.158;24.748;2023-04-29T13:03:05;99304.59;;;23.43;26.43
18527;BME280;9393;42.158;24.748;2023-04-29T13:06:11;99303.13;;;24.10;26.18
18527;BME280;9393;42.158;24.748;2023-04-29T13:09:15;99298.28;;;23.38;26.89
18527;BME280;9393;42.158;24.748;2023-04-29T13:12:20;99305.88;;;22.99;26.65
18527;BME280;9393;42.158;24.748;2023-04-29T13:15:24;99295.66;;;22.85;27.28
18527;BME280;9393;42.158;24.748;2023-04-29T13:18:28;99292.38;;;22.35;27.80
18527;BME280;9393;42.158;24.748;2023-04-29T13:21:34;99293.44;;;22.15;27.88
18527;BME280;9393;42.158;24.748;2023-04-29T13:24:37;99283.66;;;22.46;27.63
18527;BME280;9393;42.158;24.748;2023-04-29T13:27:41;99284.25;;;22.48;27.73
18527;BME280;9393;42.158;24.748;2023-04-29T13:30:45;99280.53;;;22.37;27.58
18527;BME280;9393;42.158;24.748;2023-04-29T13:33:49;99271.47;;;22.08;27.83
18527;BME280;9393;42.158;24.748;2023-04-29T13:36:56;99268.72;;;22.33;27.70
18527;BME280;9393;42.158;24.748;2023-04-29T13:40:00;99269.09;;;22.37;27.81
18527;BME280;9393;42.158;24.748;2023-04-29T13:43:06;99257.13;;;22.28;27.66
18527;BME280;9393;42.158;24.748;2023-04-29T13:46:13;99260.06;;;22.38;27.79
18527;BME280;9393;42.158;24.748;2023-04-29T13:49:21;99250.41;;;22.55;27.99
18527;BME280;9393;42.158;24.748;2023-04-29T13:52:46;99250.25;;;22.38;27.65
18527;BME280;9393;42.158;24.748;2023-04-29T13:55:53;99249.69;;;22.48;27.96
18527;BME280;9393;42.158;24.748;2023-04-29T13:59:00;99253.44;;;22.29;27.88
18527;BME280;9393;42.158;24.748;2023-04-29T14:02:24;99243.13;;;22.80;27.84
18527;BME280;9393;42.158;24.748;2023-04-29T14:05:29;99248.66;;;22.67;27.90
18527;BME280;9393;42.158;24.748;2023-04-29T14:08:35;99238.28;;;22.47;27.64
18527;BME280;9393;42.158;24.748;2023-04-29T14:11:38;99229.97;;;22.44;27.11
18527;BME280;9393;42.158;24.748;2023-04-29T14:14:42;99226.50;;;22.55;27.24
18527;BME280;9393;42.158;24.748;2023-04-29T14:17:46;99231.25;;;22.94;27.10
18527;BME280;9393;42.158;24.748;2023-04-29T14:20:51;99226.78;;;22.65;27.12
18527;BME280;9393;42.158;24.748;2023-04-29T14:23:57;99219.00;;;22.22;27.64
18527;BME280;9393;42.158;24.748;2023-04-29T14:27:01;99225.50;;;22.26;27.86
18527;BME280;9393;42.158;24.748;2023-04-29T14:30:06;99218.00;;;22.35;27.95
18527;BME280;9393;42.158;24.748;2023-04-29T14:33:10;99219.53;;;22.12;28.01
18527;BME280;9393;42.158;24.748;2023-04-29T14:36:13;99219.38;;;22.07;28.33
18527;BME280;9393;42.158;24.748;2023-04-29T14:39:19;99222.78;;;21.96;28.03
18527;BME280;9393;42.158;24.748;2023-04-29T14:42:22;99221.91;;;22.02;27.75
18527;BME280;9393;42.158;24.748;2023-04-29T14:45:26;99220.22;;;21.90;27.90
18527;BME280;9393;42.158;24.748;2023-04-29T14:48:31;99219.44;;;21.83;27.66
18527;BME280;9393;42.158;24.748;2023-04-29T14:51:34;99217.16;;;21.86;28.10
18527;BME280;9393;42.158;24.748;2023-04-29T14:54:39;99212.97;;;21.79;27.73
18527;BME280;9393;42.158;24.748;2023-04-29T14:57:43;99217.63;;;21.65;27.26
18527;BME280;9393;42.158;24.748;2023-04-29T15:00:47;99210.97;;;21.74;27.40
18527;BME280;9393;42.158;24.748;2023-04-29T15:03:52;99208.16;;;21.69;27.97
18527;BME280;9393;42.158;24.748;2023-04-29T15:06:56;99201.97;;;21.39;28.59
18527;BME280;9393;42.158;24.748;2023-04-29T15:10:02;99199.97;;;21.52;28.62
18527;BME280;9393;42.158;24.748;2023-04-29T15:13:07;99199.84;;;21.47;27.87
18527;BME280;9393;42.158;24.748;2023-04-29T15:16:11;99199.91;;;21.41;28.47
18527;BME280;9393;42.158;24.748;2023-04-29T15:19:15;99205.78;;;21.43;28.14
18527;BME280;9393;42.158;24.748;2023-04-29T15:22:19;99210.09;;;21.44;28.14
18527;BME280;9393;42.158;24.748;2023-04-29T15:25:24;99212.44;;;21.34;28.18
18527;BME280;9393;42.158;24.748;2023-04-29T15:28:28;99214.06;;;21.03;28.54
18527;BME280;9393;42.158;24.748;2023-04-29T15:31:32;99213.28;;;21.03;28.81
18527;BME280;9393;42.158;24.748;2023-04-29T15:34:36;99201.34;;;21.19;29.13
18527;BME280;9393;42.158;24.748;2023-04-29T15:37:40;99209.16;;;21.07;29.68
18527;BME280;9393;42.158;24.748;2023-04-29T15:40:45;99203.06;;;21.06;30.01
18527;BME280;9393;42.158;24.748;2023-04-29T15:43:48;99206.94;;;21.04;29.94
18527;BME280;9393;42.158;24.748;2023-04-29T15:46:53;99205.09;;;21.04;30.17
18527;BME280;9393;42.158;24.748;2023-04-29T15:49:57;99198.59;;;21.00;30.15
18527;BME280;9393;42.158;24.748;2023-04-29T15:53:01;99203.91;;;21.00;30.00
18527;BME280;9393;42.158;24.748;2023-04-29T15:56:06;99194.94;;;21.01;30.30
18527;BME280;9393;42.158;24.748;2023-04-29T15:59:10;99201.00;;;21.08;30.13
18527;BME280;9393;42.158;24.748;2023-04-29T16:02:14;99199.31;;;20.89;30.45
18527;BME280;9393;42.158;24.748;2023-04-29T16:05:18;99194.16;;;20.70;30.77
18527;BME280;9393;42.158;24.748;2023-04-29T16:08:22;99192.00;;;20.60;30.77
18527;BME280;9393;42.158;24.748;2023-04-29T16:11:27;99198.06;;;20.67;30.68
18527;BME280;9393;42.158;24.748;2023-04-29T16:14:31;99194.81;;;20.65;30.47
18527;BME280;9393;42.158;24.748;2023-04-29T16:17:35;99194.41;;;20.68;30.78
18527;BME280;9393;42.158;24.748;2023-04-29T16:20:38;99196.13;;;20.49;30.94
18527;BME280;9393;42.158;24.748;2023-04-29T16:23:43;99197.78;;;20.50;31.20
18527;BME280;9393;42.158;24.748;2023-04-29T16:26:48;99198.97;;;20.54;30.91